sensor_id;sensor_type;location;lat;lon;timestamp;pressure;altitude;pressure_sealevel;temperature;humidity
75923;BME280;64602;47.542;19.090;2023-04-03T05:22:32;100350.56;;;4.36;67.64
75923;BME280;64602;47.542;19.090;2023-04-03T05:27:34;100366.03;;;4.47;67.28
75923;BME280;64602;47.542;19.090;2023-04-03T05:32:36;100348.06;;;4.41;67.22
75923;BME280;64602;47.542;19.090;2023-04-03T05:37:39;100345.81;;;4.45;67.23
75923;BME280;64602;47.542;19.090;2023-04-03T05:42:41;100342.69;;;4.48;67.09
75923;BME280;64602;47.542;19.090;2023-04-03T05:47:43;100355.03;;;4.56;67.00
75923;BME280;64602;47.542;19.090;2023-04-03T05:52:47;100363.06;;;4.69;66.83
75923;BME280;64602;47.542;19.090;2023-04-03T05:57:50;100367.81;;;4.74;66.89
75923;BME280;64602;47.542;19.090;2023-04-03T06:02:53;100358.53;;;4.63;66.46
75923;BME280;64602;47.542;19.090;2023-04-03T06:07:55;100365.13;;;4.67;66.33
75923;BME280;64602;47.542;19.090;2023-04-03T06:12:58;100356.66;;;4.63;66.34
75923;BME280;64602;47.542;19.090;2023-04-03T06:18:01;100378.31;;;4.82;66.21
75923;BME280;64602;47.542;19.090;2023-04-03T06:23:03;100362.31;;;4.93;66.05
75923;BME280;64602;47.542;19.090;2023-04-03T06:28:08;100385.50;;;5.26;65.35
75923;BME280;64602;47.542;19.090;2023-04-03T06:33:11;100363.91;;;5.33;65.20
75923;BME280;64602;47.542;19.090;2023-04-03T06:38:14;100371.22;;;5.51;64.31
75923;BME280;64602;47.542;19.090;2023-04-03T06:43:16;100389.81;;;5.84;63.14
75923;BME280;64602;47.542;19.090;2023-04-03T06:48:18;100397.22;;;5.95;61.17
75923;BME280;64602;47.542;19.090;2023-04-03T06:53:20;100408.31;;;7.82;60.75
75923;BME280;64602;47.542;19.090;2023-04-03T06:58:22;100384.50;;;8.66;56.33
75923;BME280;64602;47.542;19.090;2023-04-03T07:03:24;100392.94;;;9.39;53.42
75923;BME280;64602;47.542;19.090;2023-04-03T07:08:26;100404.53;;;9.85;50.81
75923;BME280;64602;47.542;19.090;2023-04-03T07:13:28;100410.59;;;9.41;51.01
75923;BME280;64602;47.542;19.090;2023-04-03T07:18:31;100411.66;;;9.12;51.67
75923;BME280;64602;47.542;19.090;2023-04-03T07:23:33;100433.78;;;8.80;52.19
75923;BME280;64602;47.542;19.090;2023-04-03T07:28:36;100429.78;;;8.71;51.60
75923;BME280;64602;47.542;19.090;2023-04-03T07:33:39;100425.34;;;8.65;51.91
75923;BME280;64602;47.542;19.090;2023-04-03T07:38:42;100445.22;;;8.70;51.43
75923;BME280;64602;47.542;19.090;2023-04-03T07:43:44;100419.59;;;8.61;51.34
75923;BME280;64602;47.542;19.090;2023-04-03T07:48:47;100430.66;;;8.71;50.24
75923;BME280;64602;47.542;19.090;2023-04-03T07:53:49;100427.28;;;9.22;50.41
75923;BME280;64602;47.542;19.090;2023-04-03T07:58:51;100452.84;;;9.71;48.81
75923;BME280;64602;47.542;19.090;2023-04-03T08:03:53;100438.97;;;9.84;48.61
75923;BME280;64602;47.542;19.090;2023-04-03T08:08:55;100435.53;;;9.89;48.25
75923;BME280;64602;47.542;19.090;2023-04-03T08:13:58;100451.72;;;10.35;47.30
75923;BME280;64602;47.542;19.090;2023-04-03T08:19:00;100445.03;;;11.58;45.61
75923;BME280;64602;47.542;19.090;2023-04-03T08:24:03;100443.81;;;11.70;44.16
75923;BME280;64602;47.542;19.090;2023-04-03T08:29:05;100456.38;;;12.41;42.88
75923;BME280;64602;47.542;19.090;2023-04-03T08:34:08;100453.31;;;11.95;42.00
75923;BME280;64602;47.542;19.090;2023-04-03T08:39:10;100445.09;;;11.90;42.80
75923;BME280;64602;47.542;19.090;2023-04-03T08:44:47;100461.34;;;11.85;43.28
75923;BME280;64602;47.542;19.090;2023-04-03T08:49:55;100446.81;;;12.01;42.14
75923;BME280;64602;47.542;19.090;2023-04-03T08:55:00;100451.34;;;12.28;42.06
75923;BME280;64602;47.542;19.090;2023-04-03T09:00:09;100451.78;;;12.09;41.54
75923;BME280;64602;47.542;19.090;2023-04-03T09:05:32;100451.13;;;12.34;41.18
75923;BME280;64602;47.542;19.090;2023-04-03T09:10:40;100458.81;;;12.95;40.08
75923;BME280;64602;47.542;19.090;2023-04-03T09:15:43;100448.06;;;12.63;39.66
75923;BME280;64602;47.542;19.090;2023-04-03T09:21:01;100448.47;;;12.97;39.87
75923;BME280;64602;47.542;19.090;2023-04-03T09:26:09;100443.06;;;13.13;39.81
75923;BME280;64602;47.542;19.090;2023-04-03T09:31:19;100460.78;;;13.10;37.59
75923;BME280;64602;47.542;19.090;2023-04-03T09:36:55;100450.69;;;13.05;39.08
75923;BME280;64602;47.542;19.090;2023-04-03T09:42:04;100472.03;;;12.66;38.88
75923;BME280;64602;47.542;19.090;2023-04-03T09:52:26;100458.56;;;12.97;38.56
75923;BME280;64602;47.542;19.090;2023-04-03T09:57:32;100439.59;;;12.17;38.00
75923;BME280;64602;47.542;19.090;2023-04-03T10:02:39;100454.72;;;12.40;38.53
75923;BME280;64602;47.542;19.090;2023-04-03T10:07:42;100433.87;;;11.86;40.62
75923;BME280;64602;47.542;19.090;2023-04-03T10:13:16;100452.09;;;11.86;40.72
75923;BME280;64602;47.542;19.090;2023-04-03T10:18:30;100440.81;;;11.72;40.83
75923;BME280;64602;47.542;19.090;2023-04-03T10:23:47;100448.94;;;11.67;40.58
75923;BME280;64602;47.542;19.090;2023-04-03T10:28:57;100450.44;;;11.52;41.73
75923;BME280;64602;47.542;19.090;2023-04-03T10:34:07;100456.19;;;11.29;41.42
75923;BME280;64602;47.542;19.090;2023-04-03T10:39:19;100454.34;;;11.34;40.87
75923;BME280;64602;47.542;19.090;2023-04-03T10:50:07;100439.47;;;10.93;40.38
75923;BME280;64602;47.542;19.090;2023-04-03T11:00:20;100446.16;;;11.07;41.38
75923;BME280;64602;47.542;19.090;2023-04-03T11:05:42;100445.12;;;11.63;41.68
75923;BME280;64602;47.542;19.090;2023-04-03T11:10:49;100444.03;;;11.64;39.54
75923;BME280;64602;47.542;19.090;2023-04-03T11:15:53;100428.41;;;11.49;39.94
75923;BME280;64602;47.542;19.090;2023-04-03T11:26:30;100438.09;;;11.72;39.43
75923;BME280;64602;47.542;19.090;2023-04-03T11:38:02;100430.47;;;11.69;39.46
75923;BME280;64602;47.542;19.090;2023-04-03T11:58:33;100412.12;;;11.54;40.92
75923;BME280;64602;47.542;19.090;2023-04-03T12:08:43;100410.84;;;11.34;40.55
75923;BME280;64602;47.542;19.090;2023-04-03T12:45:24;100393.78;;;11.39;41.11
75923;BME280;64602;47.542;19.090;2023-04-03T12:50:33;100391.31;;;11.38;40.53
75923;BME280;64602;47.542;19.090;2023-04-03T12:55:35;100388.19;;;11.51;43.32
75923;BME280;64602;47.542;19.090;2023-04-03T13:00:38;100385.56;;;11.61;41.97
75923;BME280;64602;47.542;19.090;2023-04-03T13:05:44;100399.97;;;11.62;41.49
75923;BME280;64602;47.542;19.090;2023-04-03T13:10:54;100371.12;;;11.55;40.32
75923;BME280;64602;47.542;19.090;2023-04-03T13:15:58;100375.78;;;11.92;40.42
75923;BME280;64602;47.542;19.090;2023-04-03T13:21:15;100376.97;;;12.07;39.14
75923;BME280;64602;47.542;19.090;2023-04-03T13:26:20;100351.91;;;12.05;38.91
75923;BME280;64602;47.542;19.090;2023-04-03T13:31:27;100358.75;;;12.12;38.37
75923;BME280;64602;47.542;19.090;2023-04-03T13:36:45;100357.22;;;12.27;39.18
75923;BME280;64602;47.542;19.090;2023-04-03T13:41:56;100344.16;;;12.24;38.34
75923;BME280;64602;47.542;19.090;2023-04-03T13:47:23;100352.06;;;12.35;38.33
75923;BME280;64602;47.542;19.090;2023-04-03T13:52:53;100344.50;;;12.43;38.15
75923;BME280;64602;47.542;19.090;2023-04-03T13:58:01;100356.31;;;12.69;38.08
75923;BME280;64602;47.542;19.090;2023-04-03T14:08:46;100338.78;;;13.48;35.87
75923;BME280;64602;47.542;19.090;2023-04-03T14:13:49;100314.47;;;13.93;35.37
75923;BME280;64602;47.542;19.090;2023-04-03T14:18:52;100321.31;;;13.44;36.04
75923;BME280;64602;47.542;19.090;2023-04-03T14:23:54;100326.78;;;13.44;36.63
75923;BME280;64602;47.542;19.090;2023-04-03T14:28:56;100312.00;;;13.09;36.55
75923;BME280;64602;47.542;19.090;2023-04-03T14:33:58;100319.63;;;12.87;37.29
75923;BME280;64602;47.542;19.090;2023-04-03T14:39:01;100326.19;;;13.16;37.50
75923;BME280;64602;47.542;19.090;2023-04-03T14:44:13;100324.78;;;12.98;38.75
75923;BME280;64602;47.542;19.090;2023-04-03T14:49:19;100327.66;;;12.46;36.69
75923;BME280;64602;47.542;19.090;2023-04-03T14:54:23;100329.09;;;12.11;37.55
75923;BME280;64602;47.542;19.090;2023-04-03T14:59:30;100331.97;;;11.94;37.95
75923;BME280;64602;47.542;19.090;2023-04-03T15:04:33;100321.94;;;11.62;39.10
75923;BME280;64602;47.542;19.090;2023-04-03T15:09:35;100327.56;;;11.50;39.28
75923;BME280;64602;47.542;19.090;2023-04-03T15:14:38;100319.97;;;11.20;39.99
75923;BME280;64602;47.542;19.090;2023-04-03T15:19:44;100325.13;;;11.17;39.75
75923;BME280;64602;47.542;19.090;2023-04-03T15:24:46;100325.37;;;11.15;40.34
75923;BME280;64602;47.542;19.090;2023-04-03T15:29:48;100313.44;;;10.89;39.60
75923;BME280;64602;47.542;19.090;2023-04-03T15:34:50;100316.06;;;10.57;39.75
75923;BME280;64602;47.542;19.090;2023-04-03T15:39:58;100329.53;;;10.46;40.94
75923;BME280;64602;47.542;19.090;2023-04-03T15:45:00;100322.97;;;10.25;41.58
75923;BME280;64602;47.542;19.090;2023-04-03T15:50:03;100328.28;;;10.15;41.32
75923;BME280;64602;47.542;19.090;2023-04-03T15:55:08;100306.06;;;9.79;41.61
75923;BME280;64602;47.542;19.090;2023-04-03T16:00:11;100339.84;;;9.72;41.84
75923;BME280;64602;47.542;19.090;2023-04-03T16:05:15;100334.19;;;9.56;42.53
75923;BME280;64602;47.542;19.090;2023-04-03T16:10:19;100336.06;;;9.39;43.04
75923;BME280;64602;47.542;19.090;2023-04-03T16:15:22;100350.19;;;9.41;41.46
75923;BME280;64602;47.542;19.090;2023-04-03T16:20:25;100328.69;;;9.17;41.26
75923;BME280;64602;47.542;19.090;2023-04-03T16:25:27;100332.25;;;9.06;41.20
75923;BME280;64602;47.542;19.090;2023-04-03T16:30:29;100335.66;;;8.85;40.56
75923;BME280;64602;47.542;19.090;2023-04-03T16:35:32;100331.81;;;8.69;41.45
75923;BME280;64602;47.542;19.090;2023-04-03T16:40:34;100344.00;;;8.54;41.60
75923;BME280;64602;47.542;19.090;2023-04-03T16:45:36;100350.94;;;8.50;41.44
75923;BME280;64602;47.542;19.090;2023-04-03T16:50:39;100375.78;;;8.47;41.62
75923;BME280;64602;47.542;19.090;2023-04-03T16:55:41;100378.94;;;8.44;42.19
75923;BME280;64602;47.542;19.090;2023-04-03T17:00:43;100393.16;;;8.40;41.52
75923;BME280;64602;47.542;19.090;2023-04-03T17:05:49;100407.13;;;8.37;41.43
75923;BME280;64602;47.542;19.090;2023-04-03T17:10:51;100428.88;;;8.30;41.63
75923;BME280;64602;47.542;19.090;2023-04-03T17:15:55;100452.41;;;8.29;41.54
75923;BME280;64602;47.542;19.090;2023-04-03T17:20:57;100451.69;;;8.10;41.98
75923;BME280;64602;47.542;19.090;2023-04-03T17:26:01;100483.06;;;8.11;41.68
75923;BME280;64602;47.542;19.090;2023-04-03T17:31:03;100482.13;;;8.06;41.78
75923;BME280;64602;47.542;19.090;2023-04-03T17:36:06;100486.66;;;7.93;42.12
75923;BME280;64602;47.542;19.090;2023-04-03T17:41:09;100512.66;;;7.95;41.73
75923;BME280;64602;47.542;19.090;2023-04-03T17:46:11;100515.09;;;7.84;42.24
75923;BME280;64602;47.542;19.090;2023-04-03T17:51:16;100525.28;;;7.70;42.27
75923;BME280;64602;47.542;19.090;2023-04-03T17:56:21;100527.72;;;7.60;42.26
75923;BME280;64602;47.542;19.090;2023-04-03T18:01:29;100527.88;;;7.47;42.13
75923;BME280;64602;47.542;19.090;2023-04-03T18:06:37;100572.81;;;7.41;41.71
75923;BME280;64602;47.542;19.090;2023-04-03T18:11:41;100580.84;;;7.30;41.78
75923;BME280;64602;47.542;19.090;2023-04-03T18:16:44;100608.22;;;7.15;41.21
75923;BME280;64602;47.542;19.090;2023-04-03T18:21:47;100603.25;;;6.93;41.56
75923;BME280;64602;47.542;19.090;2023-04-03T18:26:54;100619.87;;;6.90;42.04
75923;BME280;64602;47.542;19.090;2023-04-03T18:32:00;100620.84;;;6.96;42.58
75923;BME280;64602;47.542;19.090;2023-04-03T18:37:03;100615.44;;;6.77;42.20
75923;BME280;64602;47.542;19.090;2023-04-03T18:42:15;100633.31;;;6.72;42.77
75923;BME280;64602;47.542;19.090;2023-04-03T18:47:18;100640.41;;;6.66;41.88
75923;BME280;64602;47.542;19.090;2023-04-03T18:52:20;100638.88;;;6.52;41.81
75923;BME280;64602;47.542;19.090;2023-04-03T18:57:23;100650.09;;;6.49;42.06
75923;BME280;64602;47.542;19.090;2023-04-03T19:02:27;100653.41;;;6.51;40.78
75923;BME280;64602;47.542;19.090;2023-04-03T19:07:30;100652.75;;;6.55;40.87
75923;BME280;64602;47.542;19.090;2023-04-03T19:12:32;100631.06;;;6.44;39.79
75923;BME280;64602;47.542;19.090;2023-04-03T19:17:36;100637.03;;;6.46;39.53
75923;BME280;64602;47.542;19.090;2023-04-03T19:22:38;100654.53;;;6.36;39.31
75923;BME280;64602;47.542;19.090;2023-04-03T19:27:40;100634.75;;;6.17;38.80
75923;BME280;64602;47.542;19.090;2023-04-03T19:32:43;100650.78;;;6.06;38.23
75923;BME280;64602;47.542;19.090;2023-04-03T19:37:45;100672.50;;;6.11;38.39
75923;BME280;64602;47.542;19.090;2023-04-03T19:42:51;100669.44;;;6.07;38.50
75923;BME280;64602;47.542;19.090;2023-04-03T19:47:53;100650.19;;;5.97;38.46
75923;BME280;64602;47.542;19.090;2023-04-03T19:52:56;100676.94;;;5.98;38.92
75923;BME280;64602;47.542;19.090;2023-04-03T19:57:59;100671.53;;;5.92;38.88
75923;BME280;64602;47.542;19.090;2023-04-03T20:03:01;100660.84;;;5.78;38.81
75923;BME280;64602;47.542;19.090;2023-04-03T20:08:03;100665.22;;;5.73;39.38
75923;BME280;64602;47.542;19.090;2023-04-03T20:13:06;100645.59;;;5.59;39.45
75923;BME280;64602;47.542;19.090;2023-04-03T20:18:15;100660.56;;;5.28;39.38
75923;BME280;64602;47.542;19.090;2023-04-03T20:23:20;100653.75;;;5.19;39.78
75923;BME280;64602;47.542;19.090;2023-04-03T20:28:23;100643.22;;;5.11;40.46
75923;BME280;64602;47.542;19.090;2023-04-03T20:33:25;100633.72;;;5.08;40.16
75923;BME280;64602;47.542;19.090;2023-04-03T20:38:27;100641.16;;;5.20;40.51
75923;BME280;64602;47.542;19.090;2023-04-03T20:43:30;100631.41;;;5.12;40.71
75923;BME280;64602;47.542;19.090;2023-04-03T20:48:32;100641.53;;;5.17;40.16
75923;BME280;64602;47.542;19.090;2023-04-03T20:53:34;100650.47;;;5.17;40.42
75923;BME280;64602;47.542;19.090;2023-04-03T20:58:37;100631.03;;;5.02;40.25
75923;BME280;64602;47.542;19.090;2023-04-03T21:03:45;100622.94;;;5.02;40.58
75923;BME280;64602;47.542;19.090;2023-04-03T21:20:07;100631.84;;;5.02;40.06
75923;BME280;64602;47.542;19.090;2023-04-03T21:25:10;100610.56;;;4.94;40.21
75923;BME280;64602;47.542;19.090;2023-04-03T21:30:13;100614.50;;;4.91;39.88
75923;BME280;64602;47.542;19.090;2023-04-03T21:35:16;100631.44;;;4.99;39.58
75923;BME280;64602;47.542;19.090;2023-04-03T21:40:18;100627.94;;;4.98;39.77
75923;BME280;64602;47.542;19.090;2023-04-03T21:45:20;100626.06;;;4.92;40.44
75923;BME280;64602;47.542;19.090;2023-04-03T21:50:23;100623.19;;;4.87;40.07
75923;BME280;64602;47.542;19.090;2023-04-03T21:55:25;100607.91;;;4.74;40.55
75923;BME280;64602;47.542;19.090;2023-04-03T22:00:28;100588.25;;;4.60;40.77
75923;BME280;64602;47.542;19.090;2023-04-03T22:05:30;100589.69;;;4.63;40.98
75923;BME280;64602;47.542;19.090;2023-04-03T22:10:33;100599.22;;;4.59;40.76
75923;BME280;64602;47.542;19.090;2023-04-03T22:15:35;100600.69;;;4.55;40.65
75923;BME280;64602;47.542;19.090;2023-04-03T22:20:43;100583.72;;;4.47;40.86
75923;BME280;64602;47.542;19.090;2023-04-03T22:26:04;100572.53;;;4.44;41.32
75923;BME280;64602;47.542;19.090;2023-04-03T22:31:07;100573.38;;;4.24;41.18
75923;BME280;64602;47.542;19.090;2023-04-03T22:36:11;100580.19;;;4.20;41.92
75923;BME280;64602;47.542;19.090;2023-04-03T22:41:14;100580.78;;;3.96;41.54
75923;BME280;64602;47.542;19.090;2023-04-03T22:46:16;100585.94;;;3.84;41.90
75923;BME280;64602;47.542;19.090;2023-04-03T22:51:18;100585.87;;;3.71;42.56
75923;BME280;64602;47.542;19.090;2023-04-03T22:56:20;100586.47;;;3.59;42.54
75923;BME280;64602;47.542;19.090;2023-04-03T23:01:26;100589.31;;;3.51;42.44
75923;BME280;64602;47.542;19.090;2023-04-03T23:06:30;100592.59;;;3.40;43.30
75923;BME280;64602;47.542;19.090;2023-04-03T23:11:32;100585.94;;;3.29;43.18
75923;BME280;64602;47.542;19.090;2023-04-03T23:16:34;100583.47;;;3.34;42.82
75923;BME280;64602;47.542;19.090;2023-04-03T23:21:36;100597.78;;;3.48;43.15
75923;BME280;64602;47.542;19.090;2023-04-03T23:26:38;100607.84;;;3.39;43.12
75923;BME280;64602;47.542;19.090;2023-04-03T23:31:41;100571.66;;;3.22;43.23
75923;BME280;64602;47.542;19.090;2023-04-03T23:36:43;100581.75;;;3.13;43.57
75923;BME280;64602;47.542;19.090;2023-04-03T23:41:45;100575.53;;;3.13;44.79
75923;BME280;64602;47.542;19.090;2023-04-03T23:46:49;100587.75;;;3.22;44.85
75923;BME280;64602;47.542;19.090;2023-04-03T23:51:51;100589.78;;;3.13;45.25
75923;BME280;64602;47.542;19.090;2023-04-03T23:56:55;100590.16;;;3.04;45.28
